sensor_id;sensor_type;location;lat;lon;timestamp;pressure;altitude;pressure_sealevel;temperature;humidity
33795;BME280;51430;52.242;21.118;2023-12-28T00:01:45;100753.95;;;0.82;100.00
33795;BME280;51430;52.242;21.118;2023-12-28T00:04:11;100750.80;;;0.73;100.00
33795;BME280;51430;52.242;21.118;2023-12-28T00:06:38;100744.67;;;0.89;100.00
33795;BME280;51430;52.242;21.118;2023-12-28T00:09:05;100745.08;;;0.92;100.00
33795;BME280;51430;52.242;21.118;2023-12-28T00:11:39;100738.44;;;1.02;100.00
33795;BME280;51430;52.242;21.118;2023-12-28T00:14:06;100730.89;;;1.07;100.00
33795;BME280;51430;52.242;21.118;2023-12-28T00:16:33;100731.45;;;1.06;100.00
33795;BME280;51430;52.242;21.118;2023-12-28T00:19:00;100732.98;;;1.00;100.00
33795;BME280;51430;52.242;21.118;2023-12-28T00:21:28;100730.10;;;1.05;99.95
33795;BME280;51430;52.242;21.118;2023-12-28T00:23:55;100732.31;;;0.89;99.98
33795;BME280;51430;52.242;21.118;2023-12-28T00:26:21;100722.97;;;0.69;100.00
33795;BME280;51430;52.242;21.118;2023-12-28T00:28:48;100718.39;;;0.67;100.00
33795;BME280;51430;52.242;21.118;2023-12-28T00:31:14;100703.27;;;0.79;100.00
33795;BME280;51430;52.242;21.118;2023-12-28T00:33:41;100691.08;;;0.79;100.00
33795;BME280;51430;52.242;21.118;2023-12-28T00:36:08;100680.53;;;0.65;100.00
33795;BME280;51430;52.242;21.118;2023-12-28T00:38:34;100678.54;;;0.69;100.00
33795;BME280;51430;52.242;21.118;2023-12-28T00:41:01;100679.30;;;0.72;100.00
33795;BME280;51430;52.242;21.118;2023-12-28T00:43:27;100685.63;;;0.84;100.00
33795;BME280;51430;52.242;21.118;2023-12-28T00:45:54;100678.05;;;0.95;100.00
33795;BME280;51430;52.242;21.118;2023-12-28T00:52:29;100697.77;;;0.85;100.00
33795;BME280;51430;52.242;21.118;2023-12-28T00:54:55;100708.05;;;0.91;100.00
33795;BME280;51430;52.242;21.118;2023-12-28T00:57:23;100715.16;;;0.83;100.00
33795;BME280;51430;52.242;21.118;2023-12-28T00:59:49;100717.73;;;0.83;100.00
33795;BME280;51430;52.242;21.118;2023-12-28T01:02:16;100714.66;;;0.83;100.00
33795;BME280;51430;52.242;21.118;2023-12-28T01:04:42;100717.95;;;0.76;100.00
33795;BME280;51430;52.242;21.118;2023-12-28T01:07:09;100708.46;;;0.61;100.00
33795;BME280;51430;52.242;21.118;2023-12-28T01:09:35;100699.98;;;0.52;100.00
33795;BME280;51430;52.242;21.118;2023-12-28T01:12:02;100701.10;;;0.66;100.00
33795;BME280;51430;52.242;21.118;2023-12-28T01:14:29;100696.96;;;0.61;100.00
33795;BME280;51430;52.242;21.118;2023-12-28T01:16:55;100690.17;;;0.59;100.00
33795;BME280;51430;52.242;21.118;2023-12-28T01:19:22;100691.27;;;0.67;100.00
33795;BME280;51430;52.242;21.118;2023-12-28T01:21:50;100685.84;;;0.71;100.00
33795;BME280;51430;52.242;21.118;2023-12-28T01:24:17;100678.11;;;0.72;100.00
33795;BME280;51430;52.242;21.118;2023-12-28T01:26:45;100673.30;;;0.71;100.00
33795;BME280;51430;52.242;21.118;2023-12-28T01:29:11;100667.05;;;0.58;100.00
33795;BME280;51430;52.242;21.118;2023-12-28T01:31:37;100655.38;;;0.58;100.00
33795;BME280;51430;52.242;21.118;2023-12-28T01:34:05;100662.05;;;0.69;100.00
33795;BME280;51430;52.242;21.118;2023-12-28T01:36:32;100663.71;;;0.54;100.00
33795;BME280;51430;52.242;21.118;2023-12-28T01:38:58;100661.33;;;0.65;100.00
33795;BME280;51430;52.242;21.118;2023-12-28T01:41:25;100652.48;;;0.63;100.00
33795;BME280;51430;52.242;21.118;2023-12-28T01:43:51;100639.56;;;0.59;100.00
33795;BME280;51430;52.242;21.118;2023-12-28T01:46:19;100643.66;;;0.60;100.00
33795;BME280;51430;52.242;21.118;2023-12-28T01:48:49;100644.28;;;0.73;100.00
33795;BME280;51430;52.242;21.118;2023-12-28T01:51:16;100644.90;;;0.64;100.00
33795;BME280;51430;52.242;21.118;2023-12-28T01:53:44;100623.76;;;0.71;100.00
33795;BME280;51430;52.242;21.118;2023-12-28T01:56:12;100619.65;;;0.65;100.00
33795;BME280;51430;52.242;21.118;2023-12-28T01:58:40;100612.07;;;0.61;100.00
33795;BME280;51430;52.242;21.118;2023-12-28T02:01:07;100601.39;;;0.73;100.00
33795;BME280;51430;52.242;21.118;2023-12-28T02:03:33;100593.52;;;0.72;100.00
33795;BME280;51430;52.242;21.118;2023-12-28T02:06:00;100590.98;;;0.81;100.00
33795;BME280;51430;52.242;21.118;2023-12-28T02:08:27;100593.96;;;0.74;100.00
33795;BME280;51430;52.242;21.118;2023-12-28T02:10:54;100593.84;;;0.84;100.00
33795;BME280;51430;52.242;21.118;2023-12-28T02:13:26;100582.16;;;0.94;100.00
33795;BME280;51430;52.242;21.118;2023-12-28T02:16:00;100570.09;;;0.81;100.00
33795;BME280;51430;52.242;21.118;2023-12-28T02:18:34;100560.36;;;0.74;100.00
33795;BME280;51430;52.242;21.118;2023-12-28T02:21:06;100539.36;;;0.76;100.00
33795;BME280;51430;52.242;21.118;2023-12-28T02:23:33;100524.52;;;0.63;100.00
33795;BME280;51430;52.242;21.118;2023-12-28T02:26:00;100532.02;;;0.64;100.00
33795;BME280;51430;52.242;21.118;2023-12-28T02:28:27;100539.45;;;0.78;100.00
33795;BME280;51430;52.242;21.118;2023-12-28T02:30:53;100539.82;;;0.72;100.00
33795;BME280;51430;52.242;21.118;2023-12-28T02:33:29;100542.13;;;0.85;100.00
33795;BME280;51430;52.242;21.118;2023-12-28T02:36:11;100535.58;;;0.81;100.00
33795;BME280;51430;52.242;21.118;2023-12-28T02:38:40;100523.17;;;0.83;100.00
33795;BME280;51430;52.242;21.118;2023-12-28T02:41:08;100522.88;;;0.86;100.00
33795;BME280;51430;52.242;21.118;2023-12-28T02:43:35;100521.09;;;0.88;100.00
33795;BME280;51430;52.242;21.118;2023-12-28T02:46:01;100514.73;;;1.03;100.00
33795;BME280;51430;52.242;21.118;2023-12-28T02:48:29;100512.13;;;1.09;100.00
33795;BME280;51430;52.242;21.118;2023-12-28T02:50:56;100507.25;;;1.02;100.00
33795;BME280;51430;52.242;21.118;2023-12-28T02:53:22;100505.62;;;1.04;100.00
33795;BME280;51430;52.242;21.118;2023-12-28T02:55:49;100507.21;;;1.08;100.00
33795;BME280;51430;52.242;21.118;2023-12-28T02:58:15;100509.86;;;1.10;100.00
33795;BME280;51430;52.242;21.118;2023-12-28T03:00:44;100510.27;;;1.14;100.00
33795;BME280;51430;52.242;21.118;2023-12-28T03:03:11;100504.77;;;1.19;100.00
33795;BME280;51430;52.242;21.118;2023-12-28T03:05:38;100497.73;;;1.18;100.00
33795;BME280;51430;52.242;21.118;2023-12-28T03:08:04;100489.11;;;1.29;100.00
33795;BME280;51430;52.242;21.118;2023-12-28T03:10:31;100486.23;;;1.42;99.91
33795;BME280;51430;52.242;21.118;2023-12-28T03:12:57;100489.39;;;1.40;99.78
33795;BME280;51430;52.242;21.118;2023-12-28T03:15:26;100474.90;;;1.37;99.63
33795;BME280;51430;52.242;21.118;2023-12-28T03:17:53;100463.14;;;1.44;99.33
33795;BME280;51430;52.242;21.118;2023-12-28T03:20:20;100462.73;;;1.50;98.83
33795;BME280;51430;52.242;21.118;2023-12-28T03:22:46;100458.33;;;1.35;98.90
33795;BME280;51430;52.242;21.118;2023-12-28T03:25:14;100452.64;;;1.50;98.70
33795;BME280;51430;52.242;21.118;2023-12-28T03:27:40;100450.18;;;1.42;98.52
33795;BME280;51430;52.242;21.118;2023-12-28T03:30:07;100449.23;;;1.44;98.58
33795;BME280;51430;52.242;21.118;2023-12-28T03:32:34;100452.19;;;1.43;98.40
33795;BME280;51430;52.242;21.118;2023-12-28T03:35:01;100447.94;;;1.47;98.23
33795;BME280;51430;52.242;21.118;2023-12-28T03:37:27;100443.07;;;1.39;98.33
33795;BME280;51430;52.242;21.118;2023-12-28T03:39:55;100441.66;;;1.40;98.18
33795;BME280;51430;52.242;21.118;2023-12-28T03:42:21;100436.77;;;1.37;98.38
33795;BME280;51430;52.242;21.118;2023-12-28T03:44:48;100427.59;;;1.44;98.09
33795;BME280;51430;52.242;21.118;2023-12-28T03:47:15;100429.52;;;1.34;98.36
33795;BME280;51430;52.242;21.118;2023-12-28T03:49:41;100433.05;;;1.31;98.32
33795;BME280;51430;52.242;21.118;2023-12-28T03:52:08;100427.89;;;1.27;98.72
33795;BME280;51430;52.242;21.118;2023-12-28T03:54:34;100421.35;;;1.32;98.52
33795;BME280;51430;52.242;21.118;2023-12-28T03:57:01;100415.29;;;1.38;98.33
33795;BME280;51430;52.242;21.118;2023-12-28T03:59:27;100415.14;;;1.46;98.04
33795;BME280;51430;52.242;21.118;2023-12-28T04:01:54;100408.84;;;1.45;97.44
33795;BME280;51430;52.242;21.118;2023-12-28T04:04:20;100405.05;;;1.45;97.32
33795;BME280;51430;52.242;21.118;2023-12-28T04:06:48;100398.57;;;1.44;97.30
33795;BME280;51430;52.242;21.118;2023-12-28T04:09:14;100393.69;;;1.46;97.23
33795;BME280;51430;52.242;21.118;2023-12-28T04:11:41;100391.02;;;1.57;96.80
33795;BME280;51430;52.242;21.118;2023-12-28T04:14:08;100395.87;;;1.56;96.32
33795;BME280;51430;52.242;21.118;2023-12-28T04:16:35;100393.52;;;1.51;96.45
33795;BME280;51430;52.242;21.118;2023-12-28T04:19:02;100384.75;;;1.55;96.23
33795;BME280;51430;52.242;21.118;2023-12-28T04:21:29;100373.05;;;1.59;96.03
33795;BME280;51430;52.242;21.118;2023-12-28T04:23:55;100373.02;;;1.52;95.71
33795;BME280;51430;52.242;21.118;2023-12-28T04:26:22;100380.92;;;1.43;96.05
33795;BME280;51430;52.242;21.118;2023-12-28T04:28:48;100374.17;;;1.49;95.89
33795;BME280;51430;52.242;21.118;2023-12-28T04:31:15;100366.56;;;1.59;95.21
33795;BME280;51430;52.242;21.118;2023-12-28T04:33:42;100362.92;;;1.64;94.75
33795;BME280;51430;52.242;21.118;2023-12-28T04:36:08;100353.40;;;1.57;94.39
33795;BME280;51430;52.242;21.118;2023-12-28T04:38:35;100343.08;;;1.36;95.13
33795;BME280;51430;52.242;21.118;2023-12-28T04:41:01;100342.20;;;1.45;95.08
33795;BME280;51430;52.242;21.118;2023-12-28T04:43:28;100341.52;;;1.45;94.72
33795;BME280;51430;52.242;21.118;2023-12-28T04:45:54;100337.55;;;1.41;94.93
33795;BME280;51430;52.242;21.118;2023-12-28T04:48:21;100334.30;;;1.54;94.50
33795;BME280;51430;52.242;21.118;2023-12-28T04:50:50;100333.92;;;1.46;94.42
33795;BME280;51430;52.242;21.118;2023-12-28T04:53:17;100323.79;;;1.50;94.31
33795;BME280;51430;52.242;21.118;2023-12-28T04:55:43;100318.12;;;1.50;94.21
33795;BME280;51430;52.242;21.118;2023-12-28T04:58:10;100318.98;;;1.41;94.19
33795;BME280;51430;52.242;21.118;2023-12-28T05:00:38;100316.23;;;1.37;94.55
33795;BME280;51430;52.242;21.118;2023-12-28T05:03:05;100304.44;;;1.40;94.58
33795;BME280;51430;52.242;21.118;2023-12-28T05:05:32;100293.91;;;1.37;94.53
33795;BME280;51430;52.242;21.118;2023-12-28T05:07:59;100280.96;;;1.39;94.51
33795;BME280;51430;52.242;21.118;2023-12-28T05:10:26;100283.96;;;1.28;94.60
33795;BME280;51430;52.242;21.118;2023-12-28T05:12:53;100276.16;;;1.26;94.83
33795;BME280;51430;52.242;21.118;2023-12-28T05:15:24;100275.52;;;1.25;94.85
33795;BME280;51430;52.242;21.118;2023-12-28T05:17:50;100280.52;;;1.29;94.79
33795;BME280;51430;52.242;21.118;2023-12-28T05:20:17;100272.30;;;1.32;94.48
33795;BME280;51430;52.242;21.118;2023-12-28T05:22:44;100269.05;;;1.36;94.41
33795;BME280;51430;52.242;21.118;2023-12-28T05:25:10;100265.52;;;1.39;93.79
33795;BME280;51430;52.242;21.118;2023-12-28T05:27:37;100266.32;;;1.36;94.02
33795;BME280;51430;52.242;21.118;2023-12-28T05:30:04;100259.94;;;1.49;93.70
33795;BME280;51430;52.242;21.118;2023-12-28T05:32:30;100251.96;;;1.47;93.36
33795;BME280;51430;52.242;21.118;2023-12-28T05:34:57;100239.29;;;1.33;93.76
33795;BME280;51430;52.242;21.118;2023-12-28T05:37:23;100228.34;;;1.41;93.99
33795;BME280;51430;52.242;21.118;2023-12-28T05:39:50;100223.35;;;1.50;93.54
33795;BME280;51430;52.242;21.118;2023-12-28T05:42:18;100212.59;;;1.65;92.98
33795;BME280;51430;52.242;21.118;2023-12-28T05:44:44;100205.29;;;1.55;92.75
33795;BME280;51430;52.242;21.118;2023-12-28T05:47:11;100201.80;;;1.55;92.87
33795;BME280;51430;52.242;21.118;2023-12-28T05:49:38;100201.38;;;1.53;93.18
33795;BME280;51430;52.242;21.118;2023-12-28T05:52:04;100199.14;;;1.65;92.75
33795;BME280;51430;52.242;21.118;2023-12-28T05:54:31;100189.21;;;1.60;92.46
33795;BME280;51430;52.242;21.118;2023-12-28T05:56:57;100185.21;;;1.54;92.49
33795;BME280;51430;52.242;21.118;2023-12-28T05:59:25;100186.11;;;1.49;93.08
33795;BME280;51430;52.242;21.118;2023-12-28T06:01:52;100193.39;;;1.51;93.08
33795;BME280;51430;52.242;21.118;2023-12-28T06:04:19;100199.16;;;1.45;93.27
33795;BME280;51430;52.242;21.118;2023-12-28T06:06:45;100209.55;;;1.55;93.12
33795;BME280;51430;52.242;21.118;2023-12-28T06:09:12;100214.61;;;1.65;92.38
33795;BME280;51430;52.242;21.118;2023-12-28T06:11:38;100209.33;;;1.52;92.46
33795;BME280;51430;52.242;21.118;2023-12-28T06:14:05;100195.38;;;1.57;92.76
33795;BME280;51430;52.242;21.118;2023-12-28T06:16:31;100193.55;;;1.64;92.57
33795;BME280;51430;52.242;21.118;2023-12-28T06:19:00;100191.22;;;1.58;92.59
33795;BME280;51430;52.242;21.118;2023-12-28T06:21:27;100192.70;;;1.51;92.73
33795;BME280;51430;52.242;21.118;2023-12-28T06:23:55;100196.95;;;1.56;92.79
33795;BME280;51430;52.242;21.118;2023-12-28T06:26:22;100201.70;;;1.58;92.53
33795;BME280;51430;52.242;21.118;2023-12-28T06:28:48;100204.11;;;1.49;92.87
33795;BME280;51430;52.242;21.118;2023-12-28T06:31:15;100203.63;;;1.49;92.88
33795;BME280;51430;52.242;21.118;2023-12-28T06:33:41;100206.14;;;1.42;93.48
33795;BME280;51430;52.242;21.118;2023-12-28T06:36:08;100207.89;;;1.50;93.09
33795;BME280;51430;52.242;21.118;2023-12-28T06:38:35;100211.05;;;1.35;93.47
33795;BME280;51430;52.242;21.118;2023-12-28T06:41:01;100208.98;;;1.27;93.83
33795;BME280;51430;52.242;21.118;2023-12-28T06:43:28;100210.34;;;1.36;93.95
33795;BME280;51430;52.242;21.118;2023-12-28T06:45:54;100209.69;;;1.31;93.90
33795;BME280;51430;52.242;21.118;2023-12-28T06:48:21;100205.98;;;1.25;94.01
33795;BME280;51430;52.242;21.118;2023-12-28T06:50:48;100200.25;;;1.27;94.49
33795;BME280;51430;52.242;21.118;2023-12-28T06:53:15;100193.23;;;1.22;94.14
33795;BME280;51430;52.242;21.118;2023-12-28T06:55:41;100186.34;;;1.18;94.32
33795;BME280;51430;52.242;21.118;2023-12-28T06:58:08;100178.41;;;1.19;94.43
33795;BME280;51430;52.242;21.118;2023-12-28T07:00:37;100176.91;;;1.18;94.42
33795;BME280;51430;52.242;21.118;2023-12-28T07:03:04;100183.03;;;1.24;94.32
33795;BME280;51430;52.242;21.118;2023-12-28T07:05:31;100179.30;;;1.22;94.13
33795;BME280;51430;52.242;21.118;2023-12-28T07:07:58;100171.75;;;1.27;94.06
33795;BME280;51430;52.242;21.118;2023-12-28T07:10:25;100171.15;;;1.37;93.74
33795;BME280;51430;52.242;21.118;2023-12-28T07:12:51;100168.63;;;1.36;93.56
33795;BME280;51430;52.242;21.118;2023-12-28T07:15:18;100165.21;;;1.27;93.93
33795;BME280;51430;52.242;21.118;2023-12-28T07:17:44;100155.23;;;1.40;93.56
33795;BME280;51430;52.242;21.118;2023-12-28T07:20:11;100152.24;;;1.29;93.89
33795;BME280;51430;52.242;21.118;2023-12-28T07:22:38;100154.55;;;1.31;93.97
33795;BME280;51430;52.242;21.118;2023-12-28T07:25:05;100156.41;;;1.48;93.77
33795;BME280;51430;52.242;21.118;2023-12-28T07:27:33;100154.25;;;1.63;93.20
33795;BME280;51430;52.242;21.118;2023-12-28T07:30:00;100153.68;;;1.68;92.26
33795;BME280;51430;52.242;21.118;2023-12-28T07:32:28;100149.13;;;1.66;92.59
33795;BME280;51430;52.242;21.118;2023-12-28T07:34:55;100150.80;;;1.87;91.96
33795;BME280;51430;52.242;21.118;2023-12-28T07:37:22;100148.42;;;1.98;91.47
33795;BME280;51430;52.242;21.118;2023-12-28T07:39:49;100142.52;;;2.15;91.16
33795;BME280;51430;52.242;21.118;2023-12-28T07:42:15;100138.68;;;2.23;90.09
33795;BME280;51430;52.242;21.118;2023-12-28T07:44:42;100141.31;;;2.44;89.65
33795;BME280;51430;52.242;21.118;2023-12-28T07:47:09;100126.64;;;2.78;88.30
33795;BME280;51430;52.242;21.118;2023-12-28T07:49:36;100132.46;;;3.00;86.93
33795;BME280;51430;52.242;21.118;2023-12-28T07:52:03;100129.84;;;3.15;85.95
33795;BME280;51430;52.242;21.118;2023-12-28T07:54:30;100123.14;;;3.11;85.88
33795;BME280;51430;52.242;21.118;2023-12-28T07:56:56;100125.52;;;3.18;86.00
33795;BME280;51430;52.242;21.118;2023-12-28T07:59:23;100135.83;;;3.53;84.91
33795;BME280;51430;52.242;21.118;2023-12-28T08:01:51;100139.43;;;3.80;83.53
33795;BME280;51430;52.242;21.118;2023-12-28T08:04:17;100140.40;;;3.78;83.40
33795;BME280;51430;52.242;21.118;2023-12-28T08:06:46;100142.80;;;3.91;82.93
33795;BME280;51430;52.242;21.118;2023-12-28T08:09:12;100147.24;;;3.62;83.54
33795;BME280;51430;52.242;21.118;2023-12-28T08:11:39;100156.21;;;3.79;83.69
33795;BME280;51430;52.242;21.118;2023-12-28T08:14:08;100169.06;;;3.80;83.47
33795;BME280;51430;52.242;21.118;2023-12-28T08:16:37;100173.16;;;3.81;83.64
33795;BME280;51430;52.242;21.118;2023-12-28T08:19:04;100160.79;;;3.90;83.48
33795;BME280;51430;52.242;21.118;2023-12-28T08:21:31;100160.61;;;3.87;83.71
33795;BME280;51430;52.242;21.118;2023-12-28T08:23:58;100152.65;;;3.78;84.15
33795;BME280;51430;52.242;21.118;2023-12-28T08:26:25;100140.81;;;3.73;84.54
33795;BME280;51430;52.242;21.118;2023-12-28T08:28:52;100134.79;;;3.64;85.40
33795;BME280;51430;52.242;21.118;2023-12-28T08:31:19;100123.65;;;3.72;85.77
33795;BME280;51430;52.242;21.118;2023-12-28T08:33:45;100124.13;;;3.89;85.26
33795;BME280;51430;52.242;21.118;2023-12-28T08:36:12;100122.21;;;4.09;84.62
33795;BME280;51430;52.242;21.118;2023-12-28T08:38:38;100117.17;;;4.16;84.58
33795;BME280;51430;52.242;21.118;2023-12-28T08:41:05;100106.56;;;4.21;84.33
33795;BME280;51430;52.242;21.118;2023-12-28T08:43:36;100099.81;;;4.28;84.33
33795;BME280;51430;52.242;21.118;2023-12-28T08:46:03;100107.23;;;4.25;84.72
33795;BME280;51430;52.242;21.118;2023-12-28T08:48:29;100111.95;;;4.36;84.49
33795;BME280;51430;52.242;21.118;2023-12-28T08:50:56;100115.55;;;4.56;84.06
33795;BME280;51430;52.242;21.118;2023-12-28T08:53:23;100117.83;;;4.76;83.41
33795;BME280;51430;52.242;21.118;2023-12-28T08:55:49;100119.36;;;4.74;83.49
33795;BME280;51430;52.242;21.118;2023-12-28T08:58:15;100114.27;;;4.84;82.96
33795;BME280;51430;52.242;21.118;2023-12-28T09:00:42;100119.00;;;4.83;83.24
33795;BME280;51430;52.242;21.118;2023-12-28T09:03:11;100123.52;;;5.07;82.33
33795;BME280;51430;52.242;21.118;2023-12-28T09:05:38;100120.75;;;4.92;82.89
33795;BME280;51430;52.242;21.118;2023-12-28T09:08:05;100111.77;;;4.85;83.16
33795;BME280;51430;52.242;21.118;2023-12-28T09:10:32;100110.83;;;4.84;83.09
33795;BME280;51430;52.242;21.118;2023-12-28T09:12:59;100107.11;;;4.70;83.54
33795;BME280;51430;52.242;21.118;2023-12-28T09:15:27;100103.15;;;4.76;83.69
33795;BME280;51430;52.242;21.118;2023-12-28T09:17:56;100103.70;;;5.00;82.92
33795;BME280;51430;52.242;21.118;2023-12-28T09:20:23;100097.98;;;5.15;82.31
33795;BME280;51430;52.242;21.118;2023-12-28T09:22:50;100102.02;;;4.96;82.81
33795;BME280;51430;52.242;21.118;2023-12-28T09:25:20;100093.31;;;5.15;82.58
33795;BME280;51430;52.242;21.118;2023-12-28T09:27:46;100091.98;;;5.09;83.11
33795;BME280;51430;52.242;21.118;2023-12-28T09:30:13;100091.96;;;5.44;82.20
33795;BME280;51430;52.242;21.118;2023-12-28T09:32:40;100088.70;;;5.49;81.47
33795;BME280;51430;52.242;21.118;2023-12-28T09:35:07;100089.02;;;5.61;81.36
33795;BME280;51430;52.242;21.118;2023-12-28T09:37:33;100086.73;;;5.70;80.95
33795;BME280;51430;52.242;21.118;2023-12-28T09:40:00;100091.11;;;5.61;81.43
33795;BME280;51430;52.242;21.118;2023-12-28T09:42:32;100082.05;;;5.62;81.57
33795;BME280;51430;52.242;21.118;2023-12-28T09:45:00;100079.42;;;5.60;82.15
33795;BME280;51430;52.242;21.118;2023-12-28T09:47:29;100075.63;;;5.54;82.20
33795;BME280;51430;52.242;21.118;2023-12-28T09:49:57;100075.20;;;5.69;82.30
33795;BME280;51430;52.242;21.118;2023-12-28T09:52:24;100078.54;;;5.63;82.86
33795;BME280;51430;52.242;21.118;2023-12-28T09:54:50;100080.17;;;5.73;83.82
33795;BME280;51430;52.242;21.118;2023-12-28T09:57:17;100087.61;;;5.76;84.68
33795;BME280;51430;52.242;21.118;2023-12-28T09:59:45;100096.56;;;5.74;85.86
33795;BME280;51430;52.242;21.118;2023-12-28T10:02:14;100099.19;;;5.88;86.25
33795;BME280;51430;52.242;21.118;2023-12-28T10:04:42;100089.84;;;5.96;86.59
33795;BME280;51430;52.242;21.118;2023-12-28T10:07:09;100092.05;;;6.00;86.37
33795;BME280;51430;52.242;21.118;2023-12-28T10:09:37;100097.59;;;6.06;86.81
33795;BME280;51430;52.242;21.118;2023-12-28T10:12:04;100091.21;;;6.19;85.73
33795;BME280;51430;52.242;21.118;2023-12-28T10:14:35;100086.27;;;6.29;86.26
33795;BME280;51430;52.242;21.118;2023-12-28T10:17:02;100083.63;;;6.38;86.00
33795;BME280;51430;52.242;21.118;2023-12-28T10:19:29;100088.98;;;6.51;84.70
33795;BME280;51430;52.242;21.118;2023-12-28T10:21:56;100087.86;;;6.71;83.56
33795;BME280;51430;52.242;21.118;2023-12-28T10:24:23;100084.98;;;6.89;82.74
33795;BME280;51430;52.242;21.118;2023-12-28T10:26:50;100082.18;;;7.05;81.90
33795;BME280;51430;52.242;21.118;2023-12-28T10:29:18;100082.84;;;7.24;81.03
33795;BME280;51430;52.242;21.118;2023-12-28T10:31:45;100074.65;;;7.39;80.08
33795;BME280;51430;52.242;21.118;2023-12-28T10:34:16;100075.10;;;7.48;79.19
33795;BME280;51430;52.242;21.118;2023-12-28T10:36:45;100072.14;;;7.64;78.58
33795;BME280;51430;52.242;21.118;2023-12-28T10:39:16;100064.85;;;7.71;78.26
33795;BME280;51430;52.242;21.118;2023-12-28T10:41:47;100067.73;;;7.79;77.06
33795;BME280;51430;52.242;21.118;2023-12-28T10:44:19;100070.67;;;7.92;76.07
33795;BME280;51430;52.242;21.118;2023-12-28T10:46:50;100057.31;;;8.02;75.81
33795;BME280;51430;52.242;21.118;2023-12-28T10:49:18;100057.50;;;8.05;75.55
33795;BME280;51430;52.242;21.118;2023-12-28T10:51:57;100071.23;;;8.16;75.45
33795;BME280;51430;52.242;21.118;2023-12-28T10:57:09;100070.11;;;8.28;75.96
33795;BME280;51430;52.242;21.118;2023-12-28T11:04:31;100076.66;;;8.26;77.47
33795;BME280;51430;52.242;21.118;2023-12-28T11:07:01;100080.92;;;8.22;77.14
33795;BME280;51430;52.242;21.118;2023-12-28T11:09:31;100079.51;;;8.17;77.97
33795;BME280;51430;52.242;21.118;2023-12-28T11:12:00;100084.17;;;8.13;79.10
33795;BME280;51430;52.242;21.118;2023-12-28T11:14:29;100080.05;;;8.07;80.51
33795;BME280;51430;52.242;21.118;2023-12-28T11:16:59;100075.40;;;8.12;81.08
33795;BME280;51430;52.242;21.118;2023-12-28T11:19:29;100079.63;;;8.03;81.93
33795;BME280;51430;52.242;21.118;2023-12-28T11:21:57;100080.68;;;7.93;83.61
33795;BME280;51430;52.242;21.118;2023-12-28T11:24:27;100076.63;;;7.81;86.06
33795;BME280;51430;52.242;21.118;2023-12-28T11:26:55;100072.55;;;7.73;86.56
33795;BME280;51430;52.242;21.118;2023-12-28T11:29:22;100073.61;;;7.72;86.79
33795;BME280;51430;52.242;21.118;2023-12-28T11:32:08;100078.38;;;7.69;86.68
33795;BME280;51430;52.242;21.118;2023-12-28T11:34:36;100080.04;;;7.64;86.96
33795;BME280;51430;52.242;21.118;2023-12-28T11:37:07;100079.41;;;7.73;86.42
33795;BME280;51430;52.242;21.118;2023-12-28T11:39:36;100082.72;;;7.76;86.77
33795;BME280;51430;52.242;21.118;2023-12-28T11:42:08;100085.26;;;7.82;86.20
33795;BME280;51430;52.242;21.118;2023-12-28T11:44:40;100086.28;;;7.82;86.33
33795;BME280;51430;52.242;21.118;2023-12-28T11:47:15;100089.86;;;7.81;86.55
33795;BME280;51430;52.242;21.118;2023-12-28T11:49:44;100089.63;;;7.84;86.80
33795;BME280;51430;52.242;21.118;2023-12-28T11:52:29;100083.42;;;7.81;87.20
33795;BME280;51430;52.242;21.118;2023-12-28T11:54:59;100077.39;;;7.73;88.13
33795;BME280;51430;52.242;21.118;2023-12-28T11:57:28;100073.70;;;7.69;89.21
33795;BME280;51430;52.242;21.118;2023-12-28T11:59:59;100070.40;;;7.71;89.59
33795;BME280;51430;52.242;21.118;2023-12-28T12:02:26;100070.77;;;7.78;89.60
33795;BME280;51430;52.242;21.118;2023-12-28T12:04:54;100072.38;;;7.70;89.84
33795;BME280;51430;52.242;21.118;2023-12-28T12:07:24;100063.64;;;7.68;89.87
33795;BME280;51430;52.242;21.118;2023-12-28T12:09:58;100069.70;;;7.78;89.85
33795;BME280;51430;52.242;21.118;2023-12-28T12:12:27;100072.66;;;7.78;89.60
33795;BME280;51430;52.242;21.118;2023-12-28T12:14:54;100071.62;;;7.88;88.78
33795;BME280;51430;52.242;21.118;2023-12-28T12:17:22;100071.73;;;7.94;88.45
33795;BME280;51430;52.242;21.118;2023-12-28T12:19:50;100073.06;;;7.97;88.00
33795;BME280;51430;52.242;21.118;2023-12-28T12:22:19;100075.88;;;7.94;87.83
33795;BME280;51430;52.242;21.118;2023-12-28T12:24:47;100076.11;;;7.96;87.92
33795;BME280;51430;52.242;21.118;2023-12-28T12:27:15;100076.77;;;7.97;88.16
33795;BME280;51430;52.242;21.118;2023-12-28T12:29:42;100075.07;;;8.11;87.75
33795;BME280;51430;52.242;21.118;2023-12-28T12:32:09;100075.66;;;8.18;87.48
33795;BME280;51430;52.242;21.118;2023-12-28T12:34:38;100078.55;;;8.21;87.66
33795;BME280;51430;52.242;21.118;2023-12-28T12:37:06;100075.04;;;8.21;87.40
33795;BME280;51430;52.242;21.118;2023-12-28T12:39:33;100074.00;;;8.24;87.64
33795;BME280;51430;52.242;21.118;2023-12-28T12:42:00;100068.83;;;8.24;87.58
33795;BME280;51430;52.242;21.118;2023-12-28T12:44:27;100064.27;;;8.27;87.64
33795;BME280;51430;52.242;21.118;2023-12-28T12:46:58;100056.40;;;8.25;87.76
33795;BME280;51430;52.242;21.118;2023-12-28T12:49:27;100060.40;;;8.27;87.48
33795;BME280;51430;52.242;21.118;2023-12-28T12:51:54;100066.35;;;8.34;86.70
33795;BME280;51430;52.242;21.118;2023-12-28T12:54:21;100064.48;;;8.36;86.39
33795;BME280;51430;52.242;21.118;2023-12-28T12:56:50;100070.00;;;8.39;86.37
33795;BME280;51430;52.242;21.118;2023-12-28T12:59:17;100065.90;;;8.38;86.20
33795;BME280;51430;52.242;21.118;2023-12-28T13:01:44;100069.81;;;8.41;85.86